sensor_id;sensor_type;location;lat;lon;timestamp;pressure;altitude;pressure_sealevel;temperature;humidity
12626;BME280;6378;42.684;23.372;2023-04-28T00:01:35;95256.16;;;7.74;63.26
12626;BME280;6378;42.684;23.372;2023-04-28T00:04:00;95283.06;;;7.87;61.82
12626;BME280;6378;42.684;23.372;2023-04-28T00:06:26;95282.94;;;7.74;62.60
12626;BME280;6378;42.684;23.372;2023-04-28T00:08:51;95281.53;;;7.77;62.51
12626;BME280;6378;42.684;23.372;2023-04-28T00:11:16;95270.53;;;7.70;62.44
12626;BME280;6378;42.684;23.372;2023-04-28T00:13:42;95286.09;;;7.76;62.46
12626;BME280;6378;42.684;23.372;2023-04-28T00:16:07;95282.03;;;7.70;62.04
12626;BME280;6378;42.684;23.372;2023-04-28T00:18:32;95277.16;;;7.64;62.39
12626;BME280;6378;42.684;23.372;2023-04-28T00:20:58;95272.81;;;7.42;63.06
12626;BME280;6378;42.684;23.372;2023-04-28T00:23:25;95286.47;;;7.58;63.83
12626;BME280;6378;42.684;23.372;2023-04-28T00:25:51;95282.56;;;7.47;64.52
12626;BME280;6378;42.684;23.372;2023-04-28T00:28:17;95287.94;;;7.47;63.90
12626;BME280;6378;42.684;23.372;2023-04-28T00:30:42;95284.59;;;7.50;64.61
12626;BME280;6378;42.684;23.372;2023-04-28T00:33:07;95288.53;;;7.44;64.07
12626;BME280;6378;42.684;23.372;2023-04-28T00:35:33;95289.84;;;7.29;65.82
12626;BME280;6378;42.684;23.372;2023-04-28T00:37:58;95286.53;;;7.32;65.66
12626;BME280;6378;42.684;23.372;2023-04-28T00:40:32;95285.75;;;7.31;65.99
12626;BME280;6378;42.684;23.372;2023-04-28T00:42:57;95288.72;;;7.30;64.27
12626;BME280;6378;42.684;23.372;2023-04-28T00:45:22;95293.47;;;7.24;65.53
12626;BME280;6378;42.684;23.372;2023-04-28T00:47:48;95282.63;;;7.12;66.01
12626;BME280;6378;42.684;23.372;2023-04-28T00:50:15;95285.31;;;7.12;67.31
12626;BME280;6378;42.684;23.372;2023-04-28T00:52:41;95294.91;;;7.13;67.09
12626;BME280;6378;42.684;23.372;2023-04-28T00:55:08;95294.75;;;7.18;66.79
12626;BME280;6378;42.684;23.372;2023-04-28T00:57:34;95297.59;;;7.13;67.81
12626;BME280;6378;42.684;23.372;2023-04-28T01:00:00;95296.94;;;6.99;68.48
12626;BME280;6378;42.684;23.372;2023-04-28T01:02:25;95301.69;;;7.02;68.28
12626;BME280;6378;42.684;23.372;2023-04-28T01:04:52;95305.13;;;6.94;70.01
12626;BME280;6378;42.684;23.372;2023-04-28T01:07:18;95310.19;;;6.87;70.02
12626;BME280;6378;42.684;23.372;2023-04-28T01:09:43;95305.13;;;6.77;70.36
12626;BME280;6378;42.684;23.372;2023-04-28T01:12:10;95303.56;;;6.84;70.41
12626;BME280;6378;42.684;23.372;2023-04-28T01:14:35;95298.06;;;6.81;69.73
12626;BME280;6378;42.684;23.372;2023-04-28T01:17:01;95306.56;;;6.91;71.04
12626;BME280;6378;42.684;23.372;2023-04-28T01:19:28;95301.06;;;6.88;71.05
12626;BME280;6378;42.684;23.372;2023-04-28T01:21:53;95299.50;;;6.78;71.33
12626;BME280;6378;42.684;23.372;2023-04-28T01:24:19;95292.72;;;6.72;71.32
12626;BME280;6378;42.684;23.372;2023-04-28T01:26:44;95300.09;;;6.75;71.10
12626;BME280;6378;42.684;23.372;2023-04-28T01:29:10;95301.53;;;6.73;71.71
12626;BME280;6378;42.684;23.372;2023-04-28T01:31:36;95318.81;;;6.75;71.52
12626;BME280;6378;42.684;23.372;2023-04-28T01:34:01;95312.06;;;6.78;72.39
12626;BME280;6378;42.684;23.372;2023-04-28T01:36:26;95302.78;;;6.67;72.99
12626;BME280;6378;42.684;23.372;2023-04-28T01:38:53;95313.00;;;6.73;71.87
12626;BME280;6378;42.684;23.372;2023-04-28T01:41:18;95306.53;;;6.66;72.85
12626;BME280;6378;42.684;23.372;2023-04-28T01:43:44;95316.44;;;6.48;73.71
12626;BME280;6378;42.684;23.372;2023-04-28T01:46:09;95326.84;;;6.67;72.43
12626;BME280;6378;42.684;23.372;2023-04-28T01:48:35;95294.25;;;6.47;73.59
12626;BME280;6378;42.684;23.372;2023-04-28T01:51:01;95307.97;;;6.55;73.47
12626;BME280;6378;42.684;23.372;2023-04-28T01:53:26;95308.41;;;6.57;72.93
12626;BME280;6378;42.684;23.372;2023-04-28T01:55:52;95312.19;;;6.56;73.30
12626;BME280;6378;42.684;23.372;2023-04-28T01:58:18;95284.50;;;6.43;73.54
12626;BME280;6378;42.684;23.372;2023-04-28T02:00:43;95312.69;;;6.58;72.60
12626;BME280;6378;42.684;23.372;2023-04-28T02:03:09;95308.13;;;6.58;73.49
12626;BME280;6378;42.684;23.372;2023-04-28T02:05:34;95321.13;;;6.42;73.36
12626;BME280;6378;42.684;23.372;2023-04-28T02:07:59;95311.88;;;6.48;74.21
12626;BME280;6378;42.684;23.372;2023-04-28T02:10:25;95307.94;;;6.46;73.33
12626;BME280;6378;42.684;23.372;2023-04-28T02:12:51;95312.63;;;6.32;73.09
12626;BME280;6378;42.684;23.372;2023-04-28T02:15:16;95321.25;;;6.20;74.01
12626;BME280;6378;42.684;23.372;2023-04-28T02:17:41;95321.06;;;6.17;75.77
12626;BME280;6378;42.684;23.372;2023-04-28T02:20:07;95325.97;;;6.23;76.25
12626;BME280;6378;42.684;23.372;2023-04-28T02:22:33;95322.19;;;6.24;75.23
12626;BME280;6378;42.684;23.372;2023-04-28T02:24:58;95326.31;;;6.30;75.15
12626;BME280;6378;42.684;23.372;2023-04-28T02:27:24;95326.78;;;6.32;74.20
12626;BME280;6378;42.684;23.372;2023-04-28T02:29:50;95326.13;;;6.27;75.41
12626;BME280;6378;42.684;23.372;2023-04-28T02:32:15;95317.31;;;6.18;74.79
12626;BME280;6378;42.684;23.372;2023-04-28T02:34:41;95300.47;;;6.08;75.41
12626;BME280;6378;42.684;23.372;2023-04-28T02:37:06;95334.34;;;6.30;74.56
12626;BME280;6378;42.684;23.372;2023-04-28T02:39:32;95342.38;;;6.39;74.31
12626;BME280;6378;42.684;23.372;2023-04-28T02:41:57;95315.75;;;6.25;74.27
12626;BME280;6378;42.684;23.372;2023-04-28T02:44:23;95344.09;;;6.35;74.01
12626;BME280;6378;42.684;23.372;2023-04-28T02:46:49;95346.13;;;6.38;74.00
12626;BME280;6378;42.684;23.372;2023-04-28T02:49:14;95349.88;;;6.28;74.62
12626;BME280;6378;42.684;23.372;2023-04-28T02:51:40;95312.25;;;6.07;74.00
12626;BME280;6378;42.684;23.372;2023-04-28T02:54:06;95331.44;;;6.18;77.38
12626;BME280;6378;42.684;23.372;2023-04-28T02:56:31;95337.38;;;6.06;77.04
12626;BME280;6378;42.684;23.372;2023-04-28T02:58:57;95343.03;;;6.05;77.49
12626;BME280;6378;42.684;23.372;2023-04-28T03:01:23;95339.75;;;6.08;77.92
12626;BME280;6378;42.684;23.372;2023-04-28T03:03:48;95343.06;;;6.14;76.92
12626;BME280;6378;42.684;23.372;2023-04-28T03:06:14;95358.66;;;6.20;77.15
12626;BME280;6378;42.684;23.372;2023-04-28T03:08:39;95365.09;;;6.19;76.69
12626;BME280;6378;42.684;23.372;2023-04-28T03:11:05;95322.25;;;5.93;74.40
12626;BME280;6378;42.684;23.372;2023-04-28T03:13:30;95357.75;;;6.33;94.81
12626;BME280;6378;42.684;23.372;2023-04-28T03:15:56;95353.72;;;6.44;94.62
12626;BME280;6378;42.684;23.372;2023-04-28T03:18:21;95358.56;;;6.34;79.40
12626;BME280;6378;42.684;23.372;2023-04-28T03:20:48;95353.81;;;6.31;76.64
12626;BME280;6378;42.684;23.372;2023-04-28T03:23:13;95384.19;;;6.35;76.40
12626;BME280;6378;42.684;23.372;2023-04-28T03:25:38;95365.50;;;6.43;93.62
12626;BME280;6378;42.684;23.372;2023-04-28T03:28:04;95362.94;;;6.30;79.48
12626;BME280;6378;42.684;23.372;2023-04-28T03:30:30;95381.53;;;6.35;76.89
12626;BME280;6378;42.684;23.372;2023-04-28T03:32:55;95337.38;;;6.06;77.00
12626;BME280;6378;42.684;23.372;2023-04-28T03:35:21;95381.31;;;6.23;77.29
12626;BME280;6378;42.684;23.372;2023-04-28T03:37:46;95376.44;;;6.25;79.53
12626;BME280;6378;42.684;23.372;2023-04-28T03:40:12;95379.91;;;6.25;77.95
12626;BME280;6378;42.684;23.372;2023-04-28T03:42:37;95388.53;;;6.22;75.59
12626;BME280;6378;42.684;23.372;2023-04-28T03:45:03;95392.03;;;6.31;74.97
12626;BME280;6378;42.684;23.372;2023-04-28T03:47:28;95397.03;;;6.72;74.23
12626;BME280;6378;42.684;23.372;2023-04-28T03:49:54;95404.50;;;7.18;70.85
12626;BME280;6378;42.684;23.372;2023-04-28T03:52:19;95393.56;;;7.83;66.87
12626;BME280;6378;42.684;23.372;2023-04-28T03:54:45;95374.66;;;8.26;61.53
12626;BME280;6378;42.684;23.372;2023-04-28T03:57:11;95413.88;;;8.86;59.77
12626;BME280;6378;42.684;23.372;2023-04-28T03:59:36;95421.31;;;9.31;56.27
12626;BME280;6378;42.684;23.372;2023-04-28T04:02:02;95416.97;;;9.80;54.31
12626;BME280;6378;42.684;23.372;2023-04-28T04:04:27;95411.09;;;9.98;52.53
12626;BME280;6378;42.684;23.372;2023-04-28T04:06:53;95423.41;;;10.20;52.16
12626;BME280;6378;42.684;23.372;2023-04-28T04:09:18;95426.28;;;10.72;50.12
12626;BME280;6378;42.684;23.372;2023-04-28T04:11:44;95430.50;;;11.22;48.56
12626;BME280;6378;42.684;23.372;2023-04-28T04:14:10;95432.13;;;11.63;47.79
12626;BME280;6378;42.684;23.372;2023-04-28T04:16:35;95436.41;;;12.20;45.69
12626;BME280;6378;42.684;23.372;2023-04-28T04:19:01;95437.06;;;12.76;44.40
12626;BME280;6378;42.684;23.372;2023-04-28T04:21:26;95431.63;;;13.07;43.50
12626;BME280;6378;42.684;23.372;2023-04-28T04:23:52;95437.19;;;13.30;41.89
12626;BME280;6378;42.684;23.372;2023-04-28T04:26:17;95418.25;;;13.65;41.03
12626;BME280;6378;42.684;23.372;2023-04-28T04:28:43;95423.97;;;14.37;39.66
12626;BME280;6378;42.684;23.372;2023-04-28T04:31:08;95439.06;;;14.83;39.42
12626;BME280;6378;42.684;23.372;2023-04-28T04:33:34;95448.19;;;15.21;38.40
12626;BME280;6378;42.684;23.372;2023-04-28T04:35:59;95414.31;;;15.34;37.27
12626;BME280;6378;42.684;23.372;2023-04-28T04:38:25;95453.19;;;15.68;36.47
12626;BME280;6378;42.684;23.372;2023-04-28T04:40:50;95451.75;;;16.07;35.75
12626;BME280;6378;42.684;23.372;2023-04-28T04:43:16;95437.94;;;16.23;35.03
12626;BME280;6378;42.684;23.372;2023-04-28T04:45:41;95456.59;;;16.24;34.61
12626;BME280;6378;42.684;23.372;2023-04-28T04:48:07;95458.78;;;16.48;34.40
12626;BME280;6378;42.684;23.372;2023-04-28T04:50:32;95457.47;;;16.69;33.94
12626;BME280;6378;42.684;23.372;2023-04-28T04:52:58;95456.81;;;16.79;34.05
12626;BME280;6378;42.684;23.372;2023-04-28T04:55:23;95469.13;;;17.10;33.48
12626;BME280;6378;42.684;23.372;2023-04-28T04:57:48;95467.44;;;17.42;32.66
12626;BME280;6378;42.684;23.372;2023-04-28T05:00:14;95475.59;;;17.42;32.53
12626;BME280;6378;42.684;23.372;2023-04-28T05:02:41;95468.13;;;17.83;32.13
12626;BME280;6378;42.684;23.372;2023-04-28T05:05:06;95480.97;;;17.90;32.16
12626;BME280;6378;42.684;23.372;2023-04-28T05:07:34;95487.56;;;17.85;32.03
12626;BME280;6378;42.684;23.372;2023-04-28T05:10:00;95479.53;;;18.13;31.17
12626;BME280;6378;42.684;23.372;2023-04-28T05:12:25;95483.03;;;18.07;30.98
12626;BME280;6378;42.684;23.372;2023-04-28T05:14:50;95481.09;;;18.18;31.30
12626;BME280;6378;42.684;23.372;2023-04-28T05:17:16;95484.59;;;18.18;30.88
12626;BME280;6378;42.684;23.372;2023-04-28T05:19:41;95486.63;;;18.36;30.74
12626;BME280;6378;42.684;23.372;2023-04-28T05:22:07;95481.19;;;18.39;30.81
12626;BME280;6378;42.684;23.372;2023-04-28T05:24:32;95478.06;;;18.34;30.32
12626;BME280;6378;42.684;23.372;2023-04-28T05:26:58;95455.84;;;18.28;30.26
12626;BME280;6378;42.684;23.372;2023-04-28T05:29:23;95481.63;;;18.48;33.70
12626;BME280;6378;42.684;23.372;2023-04-28T05:31:49;95445.56;;;17.90;30.62
12626;BME280;6378;42.684;23.372;2023-04-28T05:34:14;95477.94;;;18.02;30.38
12626;BME280;6378;42.684;23.372;2023-04-28T05:36:40;95461.09;;;17.79;30.74
12626;BME280;6378;42.684;23.372;2023-04-28T05:39:06;95467.13;;;17.54;31.13
12626;BME280;6378;42.684;23.372;2023-04-28T05:41:31;95473.59;;;16.92;31.96
12626;BME280;6378;42.684;23.372;2023-04-28T05:43:57;95462.03;;;17.02;32.02
12626;BME280;6378;42.684;23.372;2023-04-28T05:46:22;95467.53;;;17.05;32.25
12626;BME280;6378;42.684;23.372;2023-04-28T05:48:48;95472.31;;;16.75;32.97
12626;BME280;6378;42.684;23.372;2023-04-28T05:51:13;95468.19;;;16.55;33.24
12626;BME280;6378;42.684;23.372;2023-04-28T05:53:38;95475.38;;;16.73;32.84
12626;BME280;6378;42.684;23.372;2023-04-28T05:56:04;95479.91;;;16.99;32.85
12626;BME280;6378;42.684;23.372;2023-04-28T05:58:30;95488.22;;;17.17;32.51
12626;BME280;6378;42.684;23.372;2023-04-28T06:00:56;95484.16;;;16.97;32.41
12626;BME280;6378;42.684;23.372;2023-04-28T06:03:21;95464.06;;;17.12;32.56
12626;BME280;6378;42.684;23.372;2023-04-28T06:05:46;95459.50;;;17.19;31.92
12626;BME280;6378;42.684;23.372;2023-04-28T06:08:12;95481.72;;;17.32;31.89
12626;BME280;6378;42.684;23.372;2023-04-28T06:10:37;95451.28;;;16.01;32.92
12626;BME280;6378;42.684;23.372;2023-04-28T06:13:03;95458.44;;;15.57;33.54
12626;BME280;6378;42.684;23.372;2023-04-28T06:15:30;95479.53;;;15.44;34.53
12626;BME280;6378;42.684;23.372;2023-04-28T06:17:56;95476.84;;;14.95;35.14
12626;BME280;6378;42.684;23.372;2023-04-28T06:20:23;95481.63;;;15.51;35.61
12626;BME280;6378;42.684;23.372;2023-04-28T06:22:48;95473.03;;;15.49;34.55
12626;BME280;6378;42.684;23.372;2023-04-28T06:25:14;95479.31;;;15.53;35.26
12626;BME280;6378;42.684;23.372;2023-04-28T06:27:39;95480.34;;;15.71;34.81
12626;BME280;6378;42.684;23.372;2023-04-28T06:30:05;95486.06;;;15.40;34.68
12626;BME280;6378;42.684;23.372;2023-04-28T06:32:31;95480.03;;;15.76;34.80
12626;BME280;6378;42.684;23.372;2023-04-28T06:34:56;95482.25;;;15.97;34.56
12626;BME280;6378;42.684;23.372;2023-04-28T06:37:22;95477.06;;;16.18;34.55
12626;BME280;6378;42.684;23.372;2023-04-28T06:39:47;95481.69;;;16.47;33.80
12626;BME280;6378;42.684;23.372;2023-04-28T06:42:13;95456.53;;;16.17;34.08
12626;BME280;6378;42.684;23.372;2023-04-28T06:44:42;95474.25;;;16.08;34.51
12626;BME280;6378;42.684;23.372;2023-04-28T06:47:08;95469.47;;;15.68;34.61
12626;BME280;6378;42.684;23.372;2023-04-28T06:49:33;95473.72;;;15.69;34.59
12626;BME280;6378;42.684;23.372;2023-04-28T06:51:58;95469.31;;;15.87;33.88
12626;BME280;6378;42.684;23.372;2023-04-28T06:54:24;95469.38;;;15.90;34.29
12626;BME280;6378;42.684;23.372;2023-04-28T06:56:49;95467.78;;;16.19;34.27
12626;BME280;6378;42.684;23.372;2023-04-28T06:59:15;95478.66;;;16.19;34.34
12626;BME280;6378;42.684;23.372;2023-04-28T07:01:40;95471.06;;;16.32;33.52
12626;BME280;6378;42.684;23.372;2023-04-28T07:04:05;95483.75;;;15.65;34.59
12626;BME280;6378;42.684;23.372;2023-04-28T07:06:31;95469.69;;;15.59;34.72
12626;BME280;6378;42.684;23.372;2023-04-28T07:08:58;95474.69;;;15.53;35.29
12626;BME280;6378;42.684;23.372;2023-04-28T07:11:23;95471.47;;;15.74;35.36
12626;BME280;6378;42.684;23.372;2023-04-28T07:13:49;95465.25;;;15.21;34.54
12626;BME280;6378;42.684;23.372;2023-04-28T07:16:16;95447.25;;;15.36;35.13
12626;BME280;6378;42.684;23.372;2023-04-28T07:18:42;95457.72;;;15.11;35.83
12626;BME280;6378;42.684;23.372;2023-04-28T07:21:08;95469.16;;;15.50;36.64
12626;BME280;6378;42.684;23.372;2023-04-28T07:23:33;95464.09;;;15.22;35.51
12626;BME280;6378;42.684;23.372;2023-04-28T07:25:58;95471.09;;;15.49;35.54
12626;BME280;6378;42.684;23.372;2023-04-28T07:28:24;95452.66;;;15.88;34.40
12626;BME280;6378;42.684;23.372;2023-04-28T07:30:50;95460.16;;;15.98;34.45
12626;BME280;6378;42.684;23.372;2023-04-28T07:33:16;95463.13;;;16.20;34.36
12626;BME280;6378;42.684;23.372;2023-04-28T07:35:41;95463.47;;;15.85;33.94
12626;BME280;6378;42.684;23.372;2023-04-28T07:38:07;95478.69;;;15.63;34.05
12626;BME280;6378;42.684;23.372;2023-04-28T07:40:32;95462.66;;;15.81;33.98
12626;BME280;6378;42.684;23.372;2023-04-28T07:42:58;95463.13;;;16.20;33.36
12626;BME280;6378;42.684;23.372;2023-04-28T07:45:23;95454.91;;;16.46;32.27
12626;BME280;6378;42.684;23.372;2023-04-28T07:47:48;95462.47;;;16.30;32.85
12626;BME280;6378;42.684;23.372;2023-04-28T07:50:14;95462.56;;;16.37;33.36
12626;BME280;6378;42.684;23.372;2023-04-28T07:52:40;95438.94;;;16.41;32.78
12626;BME280;6378;42.684;23.372;2023-04-28T07:55:06;95459.03;;;16.66;32.84
12626;BME280;6378;42.684;23.372;2023-04-28T07:57:31;95465.31;;;17.18;31.99
12626;BME280;6378;42.684;23.372;2023-04-28T07:59:57;95462.22;;;17.23;32.70
12626;BME280;6378;42.684;23.372;2023-04-28T08:02:22;95464.50;;;17.14;31.75
12626;BME280;6378;42.684;23.372;2023-04-28T08:04:48;95460.81;;;16.55;31.21
12626;BME280;6378;42.684;23.372;2023-04-28T08:10:16;95348.06;;;14.82;32.67
12626;BME280;6378;42.684;23.372;2023-04-28T08:12:42;95461.25;;;15.64;32.43
12626;BME280;6378;42.684;23.372;2023-04-28T08:15:09;95459.59;;;16.16;32.34
12626;BME280;6378;42.684;23.372;2023-04-28T08:17:35;95454.94;;;16.50;31.93
12626;BME280;6378;42.684;23.372;2023-04-28T08:20:02;95463.69;;;16.69;31.45
12626;BME280;6378;42.684;23.372;2023-04-28T08:22:27;95444.19;;;16.60;30.70
12626;BME280;6378;42.684;23.372;2023-04-28T08:24:53;95461.16;;;16.50;31.32
12626;BME280;6378;42.684;23.372;2023-04-28T08:27:18;95462.81;;;16.58;31.64
12626;BME280;6378;42.684;23.372;2023-04-28T08:29:43;95458.75;;;16.78;31.60
12626;BME280;6378;42.684;23.372;2023-04-28T08:32:09;95462.13;;;17.09;35.01
12626;BME280;6378;42.684;23.372;2023-04-28T08:34:34;95461.47;;;17.26;30.78
12626;BME280;6378;42.684;23.372;2023-04-28T08:37:00;95455.13;;;17.08;30.42
12626;BME280;6378;42.684;23.372;2023-04-28T08:39:25;95462.69;;;16.84;30.79
12626;BME280;6378;42.684;23.372;2023-04-28T08:41:52;95462.72;;;16.88;30.88
12626;BME280;6378;42.684;23.372;2023-04-28T08:44:18;95451.47;;;16.89;31.46
12626;BME280;6378;42.684;23.372;2023-04-28T08:46:44;95464.50;;;17.14;30.13
12626;BME280;6378;42.684;23.372;2023-04-28T08:49:14;95440.75;;;16.67;30.06
12626;BME280;6378;42.684;23.372;2023-04-28T08:51:59;95439.75;;;16.45;29.82
12626;BME280;6378;42.684;23.372;2023-04-28T08:54:30;95437.28;;;15.99;30.66
12626;BME280;6378;42.684;23.372;2023-04-28T08:56:56;95442.13;;;16.50;30.80
12626;BME280;6378;42.684;23.372;2023-04-28T08:59:22;95418.34;;;16.40;30.24
12626;BME280;6378;42.684;23.372;2023-04-28T09:01:48;95434.34;;;16.12;30.68
12626;BME280;6378;42.684;23.372;2023-04-28T09:04:16;95440.13;;;16.10;31.22
12626;BME280;6378;42.684;23.372;2023-04-28T09:06:41;95399.56;;;15.91;30.73
12626;BME280;6378;42.684;23.372;2023-04-28T09:09:27;95431.84;;;16.33;31.47
12626;BME280;6378;42.684;23.372;2023-04-28T09:11:57;95433.84;;;16.36;30.87
12626;BME280;6378;42.684;23.372;2023-04-28T09:14:24;95429.31;;;16.14;30.58
12626;BME280;6378;42.684;23.372;2023-04-28T09:16:50;95412.31;;;15.57;31.35
12626;BME280;6378;42.684;23.372;2023-04-28T09:19:16;95423.78;;;15.21;32.03
12626;BME280;6378;42.684;23.372;2023-04-28T09:21:54;95413.31;;;15.19;31.98
12626;BME280;6378;42.684;23.372;2023-04-28T09:24:39;95412.41;;;15.64;32.67
12626;BME280;6378;42.684;23.372;2023-04-28T09:27:07;95407.56;;;15.80;32.36
12626;BME280;6378;42.684;23.372;2023-04-28T09:29:37;95408.13;;;16.26;30.62
12626;BME280;6378;42.684;23.372;2023-04-28T09:32:14;95409.88;;;16.48;31.11
12626;BME280;6378;42.684;23.372;2023-04-28T09:34:44;95412.81;;;16.66;30.67
12626;BME280;6378;42.684;23.372;2023-04-28T09:37:20;95408.19;;;16.70;31.45
12626;BME280;6378;42.684;23.372;2023-04-28T09:39:50;95395.50;;;16.48;31.08
12626;BME280;6378;42.684;23.372;2023-04-28T09:42:38;95395.88;;;16.87;30.90
12626;BME280;6378;42.684;23.372;2023-04-28T09:47:41;95388.81;;;16.75;30.84
12626;BME280;6378;42.684;23.372;2023-04-28T09:50:09;95395.44;;;16.81;30.61
12626;BME280;6378;42.684;23.372;2023-04-28T09:52:37;95391.72;;;17.00;31.00
12626;BME280;6378;42.684;23.372;2023-04-28T09:55:04;95381.31;;;17.13;29.68
12626;BME280;6378;42.684;23.372;2023-04-28T09:57:32;95374.47;;;17.33;29.25
12626;BME280;6378;42.684;23.372;2023-04-28T09:59:58;95377.63;;;17.42;28.53
12626;BME280;6378;42.684;23.372;2023-04-28T10:02:24;95364.22;;;17.12;28.47
12626;BME280;6378;42.684;23.372;2023-04-28T10:04:50;95372.50;;;16.75;28.70
12626;BME280;6378;42.684;23.372;2023-04-28T10:07:17;95365.88;;;16.73;29.56
12626;BME280;6378;42.684;23.372;2023-04-28T10:09:45;95365.25;;;16.50;29.68
12626;BME280;6378;42.684;23.372;2023-04-28T10:12:18;95364.16;;;16.58;28.83
12626;BME280;6378;42.684;23.372;2023-04-28T10:14:46;95350.31;;;16.66;28.33
12626;BME280;6378;42.684;23.372;2023-04-28T10:17:13;95367.22;;;16.97;28.48
12626;BME280;6378;42.684;23.372;2023-04-28T10:19:42;95362.63;;;17.04;28.60
12626;BME280;6378;42.684;23.372;2023-04-28T10:27:33;95358.16;;;17.37;28.21
12626;BME280;6378;42.684;23.372;2023-04-28T10:30:13;95355.84;;;17.42;28.80
12626;BME280;6378;42.684;23.372;2023-04-28T10:32:39;95344.91;;;17.31;29.02
12626;BME280;6378;42.684;23.372;2023-04-28T10:38:05;95345.25;;;17.23;28.22
12626;BME280;6378;42.684;23.372;2023-04-28T10:40:31;95349.81;;;17.08;27.80
12626;BME280;6378;42.684;23.372;2023-04-28T10:42:57;95341.66;;;17.05;27.22
12626;BME280;6378;42.684;23.372;2023-04-28T10:48:16;95327.25;;;16.53;27.37
12626;BME280;6378;42.684;23.372;2023-04-28T10:56:07;95316.34;;;16.97;33.85
12626;BME280;6378;42.684;23.372;2023-04-28T10:58:33;95322.66;;;17.15;28.62
12626;BME280;6378;42.684;23.372;2023-04-28T11:19:20;95295.41;;;17.05;26.63
12626;BME280;6378;42.684;23.372;2023-04-28T11:21:47;95276.50;;;16.64;26.32
12626;BME280;6378;42.684;23.372;2023-04-28T11:24:13;95297.56;;;16.81;27.18
12626;BME280;6378;42.684;23.372;2023-04-28T11:26:39;95294.97;;;16.96;26.66
12626;BME280;6378;42.684;23.372;2023-04-28T11:29:05;95264.69;;;17.01;27.15
12626;BME280;6378;42.684;23.372;2023-04-28T11:31:30;95277.72;;;17.50;26.11
12626;BME280;6378;42.684;23.372;2023-04-28T11:34:11;95284.25;;;17.27;25.10
12626;BME280;6378;42.684;23.372;2023-04-28T11:36:39;95278.50;;;17.40;25.33
12626;BME280;6378;42.684;23.372;2023-04-28T11:39:10;95278.03;;;17.30;25.27
12626;BME280;6378;42.684;23.372;2023-04-28T11:41:38;95272.22;;;17.25;25.05
12626;BME280;6378;42.684;23.372;2023-04-28T11:44:14;95273.78;;;17.29;25.77
12626;BME280;6378;42.684;23.372;2023-04-28T11:46:52;95260.94;;;17.30;27.57
12626;BME280;6378;42.684;23.372;2023-04-28T11:49:21;95261.44;;;17.53;28.03
12626;BME280;6378;42.684;23.372;2023-04-28T11:51:49;95269.44;;;17.14;27.71
12626;BME280;6378;42.684;23.372;2023-04-28T11:54:23;95265.47;;;17.01;29.12
12626;BME280;6378;42.684;23.372;2023-04-28T11:56:49;95250.09;;;17.33;29.16
12626;BME280;6378;42.684;23.372;2023-04-28T11:59:15;95250.91;;;17.48;28.17
12626;BME280;6378;42.684;23.372;2023-04-28T12:01:51;95253.34;;;17.67;28.00
12626;BME280;6378;42.684;23.372;2023-04-28T12:09:36;95246.78;;;18.00;27.84
12626;BME280;6378;42.684;23.372;2023-04-28T12:12:06;95244.88;;;18.22;28.01
12626;BME280;6378;42.684;23.372;2023-04-28T12:14:55;95237.88;;;18.32;27.77
12626;BME280;6378;42.684;23.372;2023-04-28T12:17:29;95231.25;;;18.47;27.78
12626;BME280;6378;42.684;23.372;2023-04-28T12:19:55;95225.41;;;18.52;27.67
12626;BME280;6378;42.684;23.372;2023-04-28T12:22:21;95228.09;;;18.73;27.82
12626;BME280;6378;42.684;23.372;2023-04-28T12:25:03;95222.66;;;18.48;27.20
12626;BME280;6378;42.684;23.372;2023-04-28T12:27:29;95226.16;;;17.96;28.71
12626;BME280;6378;42.684;23.372;2023-04-28T12:29:55;95215.22;;;17.67;28.61
12626;BME280;6378;42.684;23.372;2023-04-28T12:32:42;95222.91;;;17.51;29.04
12626;BME280;6378;42.684;23.372;2023-04-28T12:35:08;95209.41;;;17.72;27.69
12626;BME280;6378;42.684;23.372;2023-04-28T12:37:34;95209.78;;;17.89;27.91
12626;BME280;6378;42.684;23.372;2023-04-28T12:39:59;95217.22;;;18.13;28.35
12626;BME280;6378;42.684;23.372;2023-04-28T12:42:26;95209.41;;;17.94;28.74
12626;BME280;6378;42.684;23.372;2023-04-28T12:44:52;95204.66;;;17.55;29.80
12626;BME280;6378;42.684;23.372;2023-04-28T12:47:18;95205.13;;;17.86;28.68
12626;BME280;6378;42.684;23.372;2023-04-28T12:49:44;95204.38;;;17.92;28.88
12626;BME280;6378;42.684;23.372;2023-04-28T12:52:11;95200.50;;;17.97;28.72
12626;BME280;6378;42.684;23.372;2023-04-28T12:54:36;95185.69;;;18.05;28.34
12626;BME280;6378;42.684;23.372;2023-04-28T12:57:03;95174.78;;;18.08;29.25
12626;BME280;6378;42.684;23.372;2023-04-28T12:59:30;95185.69;;;17.84;29.12
12626;BME280;6378;42.684;23.372;2023-04-28T13:01:56;95190.31;;;17.65;29.71
12626;BME280;6378;42.684;23.372;2023-04-28T13:04:22;95156.44;;;17.49;29.86
12626;BME280;6378;42.684;23.372;2023-04-28T13:06:48;95190.31;;;17.62;29.20
12626;BME280;6378;42.684;23.372;2023-04-28T13:09:14;95177.13;;;17.67;29.37
12626;BME280;6378;42.684;23.372;2023-04-28T13:11:40;95168.19;;;17.78;29.51
12626;BME280;6378;42.684;23.372;2023-04-28T13:14:07;95179.44;;;17.76;29.63
12626;BME280;6378;42.684;23.372;2023-04-28T13:16:32;95097.69;;;17.30;29.61
12626;BME280;6378;42.684;23.372;2023-04-28T13:18:59;95173.25;;;18.07;29.16
12626;BME280;6378;42.684;23.372;2023-04-28T13:21:25;95172.09;;;18.23;29.01
12626;BME280;6378;42.684;23.372;2023-04-28T13:23:53;95176.72;;;18.47;28.19
12626;BME280;6378;42.684;23.372;2023-04-28T13:26:19;95168.56;;;18.61;28.61
12626;BME280;6378;42.684;23.372;2023-04-28T13:28:47;95169.31;;;18.58;27.43
12626;BME280;6378;42.684;23.372;2023-04-28T13:31:13;95160.03;;;18.13;28.88
12626;BME280;6378;42.684;23.372;2023-04-28T13:33:39;95163.91;;;18.23;28.61
12626;BME280;6378;42.684;23.372;2023-04-28T13:36:05;95154.91;;;18.43;28.68
12626;BME280;6378;42.684;23.372;2023-04-28T13:38:31;95163.88;;;18.62;28.69
12626;BME280;6378;42.684;23.372;2023-04-28T13:40:56;95149.50;;;18.22;28.94
12626;BME280;6378;42.684;23.372;2023-04-28T13:43:22;95160.00;;;17.95;29.89
12626;BME280;6378;42.684;23.372;2023-04-28T13:45:47;95165.47;;;18.06;29.95